Terminal Aerodrome Forecast
Issued by NWS

Home | Current Version | Previous Version | Text Only | Print | Product List | Glossary On
Versions: 1 2 3 4 5 6 7 8 9 10 11 12 13 14 15 16 17 18 19 20 21 22 23
000
FTUS41 KPBZ 152300
TAFDUJ
TAF
KDUJ 152320Z 1600/1624 24003KT P6SM OVC050
     FM160400 23003KT 4SM -RA BR OVC050
     FM160700 26002KT 4SM -RA BR OVC007
     FM161200 35005KT P6SM BKN015
     FM161600 34005KT P6SM BKN035=

USA.gov is the U.S. government's official web portal to all federal, state and local government web resources and services.